Time;durP1;ratioP1;P1;durP2;ratioP2;P2;SDS_P1;SDS_P2;PMS_P1;PMS_P2;Temp;Humidity;BMP_temperature;BMP_pressure;BME280_temperature;BME280_humidity;BME280_pressure;Samples;Min_cycle;Max_cycle;Signal;HPM_P1;HPM_P2
2022/01/20 00:01:35;;;;;;;;;25.75;21.00;;;;;7.97;78.40;102256.03;5054886;28;45398;-65
2022/01/20 00:04:00;;;;;;;;;39.50;36.25;;;;;7.94;78.86;102262.28;5055156;28;45525;-65
2022/01/20 00:28:17;;;;;;;;;32.50;29.25;;;;;7.82;78.04;102266.91;5055832;28;45301;-64
2022/01/20 00:30:50;;;;;;;;;28.50;24.25;;;;;7.83;77.78;102256.28;5054672;28;46252;-63
2022/01/20 00:33:34;;;;;;;;;36.00;32.75;;;;;7.85;77.32;102248.31;5038780;28;45760;-64
2022/01/20 00:38:39;;;;;;;;;27.50;22.75;;;;;7.69;77.17;102256.53;5055613;28;45303;-64
2022/01/20 00:41:05;;;;;;;;;25.00;22.75;;;;;7.72;77.42;102260.03;5055073;28;46030;-63
2022/01/20 00:43:31;;;;;;;;;30.25;25.25;;;;;7.66;77.38;102242.44;5055418;28;45458;-66
2022/01/20 00:45:57;;;;;;;;;22.00;21.25;;;;;7.63;77.52;102255.75;5054303;28;45357;-64
2022/01/20 00:48:23;;;;;;;;;29.75;25.50;;;;;7.61;77.92;102247.84;5055442;28;45512;-63
2022/01/20 00:50:49;;;;;;;;;30.25;25.00;;;;;7.57;76.98;102254.09;5055048;28;45561;-64
2022/01/20 00:53:15;;;;;;;;;26.75;19.75;;;;;7.48;76.85;102258.66;5054901;28;45481;-64
2022/01/20 00:55:41;;;;;;;;;28.00;25.00;;;;;7.49;77.63;102263.06;5054775;28;45486;-65
2022/01/20 00:58:07;;;;;;;;;29.50;18.50;;;;;7.48;77.73;102256.88;5055492;28;45461;-66
2022/01/20 01:00:33;;;;;;;;;27.75;25.00;;;;;7.48;77.18;102251.59;5054737;28;46418;-63
2022/01/20 01:02:59;;;;;;;;;27.50;21.50;;;;;7.50;76.94;102255.09;5054789;28;45367;-66
2022/01/20 01:05:26;;;;;;;;;27.00;21.25;;;;;7.46;76.57;102253.41;5055169;28;45520;-64
2022/01/20 01:07:56;;;;;;;;;28.50;20.50;;;;;7.44;77.03;102254.34;5054690;28;45640;-64
2022/01/20 01:10:29;;;;;;;;;25.75;20.00;;;;;7.45;76.28;102272.84;5050229;28;47520;-63
2022/01/20 01:13:04;;;;;;;;;25.50;19.25;;;;;7.44;77.24;102270.22;5023462;28;45768;-63
2022/01/20 01:15:43;;;;;;;;;19.75;17.00;;;;;7.45;76.78;102274.59;5044568;28;45617;-64
2022/01/20 01:23:31;;;;;;;;;23.25;17.00;;;;;7.46;76.71;102284.28;5053060;28;45351;-64
2022/01/20 01:25:58;;;;;;;;;20.75;16.75;;;;;7.46;76.34;102298.41;5053860;28;45439;-63
2022/01/20 01:28:27;;;;;;;;;23.25;19.50;;;;;7.42;76.27;102298.47;5054735;28;45540;-63
2022/01/20 01:33:39;;;;;;;;;20.75;17.50;;;;;7.36;76.62;102302.09;5054388;28;45437;-63
2022/01/20 01:36:07;;;;;;;;;20.75;19.50;;;;;7.31;76.51;102306.59;5037001;28;45445;-65
2022/01/20 01:38:37;;;;;;;;;19.75;19.75;;;;;7.22;76.76;102304.94;5054761;28;45354;-66
2022/01/20 01:41:10;;;;;;;;;23.00;22.00;;;;;7.25;76.74;102306.66;5036544;28;46592;-62
2022/01/20 01:43:37;;;;;;;;;19.25;19.25;;;;;7.23;76.64;102311.09;5042301;28;45461;-62
2022/01/20 01:46:04;;;;;;;;;23.00;19.00;;;;;7.22;76.10;102301.41;5036050;28;45418;-65
2022/01/20 01:48:30;;;;;;;;;22.00;20.25;;;;;7.25;76.40;102306.66;5058225;28;45372;-63
2022/01/20 01:50:56;;;;;;;;;21.75;19.75;;;;;7.22;76.30;102315.53;5057669;28;46881;-63
2022/01/20 01:53:21;;;;;;;;;25.25;20.75;;;;;7.17;76.38;102321.78;5057742;28;45389;-63
2022/01/20 01:55:47;;;;;;;;;24.75;20.00;;;;;7.16;76.08;102339.44;5039814;28;45354;-65
2022/01/20 01:58:13;;;;;;;;;26.75;20.00;;;;;7.16;76.62;102338.53;5058651;28;45676;-63
2022/01/20 02:00:40;;;;;;;;;16.00;16.00;;;;;7.12;76.46;102335.06;5022027;28;45501;-65
2022/01/20 02:03:06;;;;;;;;;20.25;19.75;;;;;7.09;76.27;102338.63;5039253;28;45458;-64
2022/01/20 02:05:33;;;;;;;;;13.25;9.50;;;;;7.12;75.76;102358.00;5057636;28;45748;-65
2022/01/20 02:18:51;;;;;;;;;23.50;21.25;;;;;7.00;76.39;102359.91;5058083;28;45390;-65
2022/01/20 02:21:17;;;;;;;;;23.75;15.00;;;;;6.98;76.52;102360.84;5056970;28;45296;-64
2022/01/20 02:23:44;;;;;;;;;20.00;16.00;;;;;6.91;75.30;102352.13;5039688;28;45869;-63
2022/01/20 02:26:10;;;;;;;;;17.75;13.75;;;;;6.94;75.40;102351.19;5034416;28;45382;-63
2022/01/20 02:28:36;;;;;;;;;23.25;17.00;;;;;6.93;75.71;102362.69;5058090;28;45512;-63
2022/01/20 02:31:01;;;;;;;;;18.00;16.00;;;;;6.89;75.20;102366.25;5052627;28;45918;-65
2022/01/20 02:33:29;;;;;;;;;18.75;16.00;;;;;6.86;74.61;102372.44;5034368;28;45454;-67
2022/01/20 02:35:58;;;;;;;;;19.00;18.00;;;;;6.86;75.18;102363.63;5040245;28;45613;-63
2022/01/20 02:38:32;;;;;;;;;16.75;15.00;;;;;6.85;74.17;102375.13;5057446;28;45630;-64
2022/01/20 02:46:41;;;;;;;;;14.00;11.25;;;;;6.76;74.56;102360.22;5055688;28;45459;-65
2022/01/20 02:49:11;;;;;;;;;15.00;12.50;;;;;6.80;75.03;102344.31;5057811;28;45944;-65
2022/01/20 02:51:37;;;;;;;;;13.25;12.75;;;;;6.73;74.12;102333.81;5056756;28;45358;-65
2022/01/20 02:54:04;;;;;;;;;13.50;10.25;;;;;6.77;74.12;102343.47;5057145;28;45474;-65
2022/01/20 02:56:29;;;;;;;;;17.75;15.50;;;;;6.77;73.78;102340.81;5056963;28;45418;-62
2022/01/20 02:58:55;;;;;;;;;17.75;12.75;;;;;6.58;74.08;102308.44;5039467;28;45466;-64
2022/01/20 03:01:20;;;;;;;;;16.75;12.00;;;;;6.75;74.15;102327.63;5056075;28;45528;-63
2022/01/20 03:03:45;;;;;;;;;12.25;11.50;;;;;6.73;72.57;102337.34;5038699;28;45498;-64
2022/01/20 03:06:11;;;;;;;;;14.00;11.75;;;;;6.66;72.69;102342.75;5056993;28;45295;-65
2022/01/20 03:08:37;;;;;;;;;13.75;12.00;;;;;6.65;73.67;102346.28;5056985;28;45364;-63
2022/01/20 03:11:02;;;;;;;;;10.75;9.00;;;;;6.65;73.70;102351.56;5056762;28;45814;-64
2022/01/20 03:13:28;;;;;;;;;10.25;10.25;;;;;6.67;73.68;102350.66;5038016;28;45932;-61
2022/01/20 03:15:54;;;;;;;;;12.75;9.25;;;;;6.67;73.36;102363.00;5057140;28;46751;-62
2022/01/20 03:18:19;;;;;;;;;9.25;7.00;;;;;6.63;73.15;102353.31;5056716;28;45540;-63
2022/01/20 03:20:45;;;;;;;;;14.25;14.25;;;;;6.60;73.09;102356.88;5038058;28;45443;-63
2022/01/20 03:23:10;;;;;;;;;17.00;17.00;;;;;6.67;73.41;102363.00;5038322;28;45321;-63
2022/01/20 03:25:35;;;;;;;;;15.75;12.75;;;;;6.68;73.63;102370.03;5056351;28;45521;-63
2022/01/20 03:28:01;;;;;;;;;15.75;12.75;;;;;6.62;73.90;102367.44;5056372;28;45585;-63
2022/01/20 03:30:27;;;;;;;;;13.75;9.75;;;;;6.66;73.30;102358.59;5056587;28;45340;-63
2022/01/20 03:32:53;;;;;;;;;15.50;12.00;;;;;6.69;73.45;102374.44;5038043;28;45384;-65
2022/01/20 03:35:18;;;;;;;;;9.50;9.50;;;;;6.69;73.18;102371.78;5038104;28;45384;-62
2022/01/20 03:37:44;;;;;;;;;18.75;15.75;;;;;6.66;72.94;102374.47;5056230;28;45616;-64
2022/01/20 03:40:10;;;;;;;;;11.75;8.75;;;;;6.61;72.58;102381.56;5055797;28;45443;-64
2022/01/20 03:42:36;;;;;;;;;9.00;9.00;;;;;6.58;72.89;102371.91;5056251;28;45609;-63
2022/01/20 03:45:02;;;;;;;;;13.25;7.50;;;;;6.62;72.76;102375.38;5056358;28;46234;-64
2022/01/20 03:47:28;;;;;;;;;10.25;10.25;;;;;6.61;72.46;102366.56;5056510;28;45628;-66
2022/01/20 03:50:07;;;;;;;;;16.00;10.00;;;;;6.62;72.41;102370.09;5055816;28;45391;-65
2022/01/20 03:52:33;;;;;;;;;13.00;9.25;;;;;6.62;72.49;102375.38;5034679;28;45244;-66
2022/01/20 03:54:58;;;;;;;;;15.00;12.75;;;;;6.63;72.39;102380.63;5050723;28;45405;-65
2022/01/20 03:57:24;;;;;;;;;18.00;11.50;;;;;6.60;73.29;102383.31;5055610;28;45261;-64
2022/01/20 03:59:49;;;;;;;;;12.00;10.50;;;;;6.53;72.60;102375.50;5055290;28;45904;-63
2022/01/20 04:02:15;;;;;;;;;12.00;9.00;;;;;6.56;72.16;102383.38;5042987;28;45517;-64
2022/01/20 04:04:40;;;;;;;;;8.75;7.50;;;;;6.56;71.78;102388.66;5052385;28;45550;-65
2022/01/20 04:07:06;;;;;;;;;15.25;11.00;;;;;6.54;72.07;102395.75;5055514;28;45894;-62
2022/01/20 04:09:32;;;;;;;;;16.00;12.00;;;;;6.46;72.08;102399.34;5055362;28;45418;-64
2022/01/20 04:11:57;;;;;;;;;10.50;9.00;;;;;6.39;72.40;102402.94;5055460;28;45509;-66
2022/01/20 04:14:25;;;;;;;;;10.75;10.75;;;;;6.43;73.31;102404.66;5056114;28;45493;-65
2022/01/20 04:19:26;;;;;;;;;15.50;11.50;;;;;6.43;72.35;102407.31;5038841;28;45384;-64
2022/01/20 04:21:51;;;;;;;;;15.00;10.00;;;;;6.45;72.88;102410.78;5055682;28;45449;-63
2022/01/20 04:24:17;;;;;;;;;10.75;10.75;;;;;6.46;72.59;102409.91;5054976;28;45217;-63
2022/01/20 04:26:44;;;;;;;;;12.75;10.75;;;;;6.47;72.06;102416.94;5054431;28;45423;-65
2022/01/20 04:29:12;;;;;;;;;8.00;8.00;;;;;6.45;71.86;102412.56;5055833;28;45631;-65
2022/01/20 04:31:39;;;;;;;;;11.00;8.00;;;;;6.47;71.91;102411.66;5055099;28;45529;-63
2022/01/20 04:34:08;;;;;;;;;9.75;9.75;;;;;6.42;71.58;102402.03;5055133;28;45465;-64
2022/01/20 04:36:38;;;;;;;;;14.00;11.00;;;;;6.35;71.95;102409.13;5055603;28;45451;-64
2022/01/20 04:39:07;;;;;;;;;10.00;8.75;;;;;6.35;71.60;102409.13;5035901;28;47722;-65
2022/01/20 04:41:33;;;;;;;;;8.75;8.00;;;;;6.22;71.49;102400.44;5055388;28;45436;-63
2022/01/20 04:44:00;;;;;;;;;18.00;12.00;;;;;6.36;72.11;102429.38;5031338;28;45485;-63
2022/01/20 04:46:38;;;;;;;;;9.00;7.50;;;;;6.36;71.61;102421.44;5055638;28;45604;-64
2022/01/20 04:57:20;;;;;;;;;11.25;9.50;;;;;6.28;71.74;102433.88;5055467;28;45338;-63
2022/01/20 04:59:48;;;;;;;;;8.50;8.50;;;;;6.22;71.90;102436.56;5054592;28;46363;-64
2022/01/20 05:02:14;;;;;;;;;5.50;5.50;;;;;6.10;71.48;102436.66;5055291;28;45518;-66
2022/01/20 05:04:40;;;;;;;;;14.00;10.25;;;;;6.06;72.98;102429.66;5054886;28;45394;-63
2022/01/20 05:07:07;;;;;;;;;12.75;9.00;;;;;6.08;72.64;102425.22;5055077;28;45558;-64
2022/01/20 05:09:36;;;;;;;;;12.75;10.50;;;;;6.06;72.52;102421.72;5037020;28;45482;-64
2022/01/20 05:12:15;;;;;;;;;10.50;10.50;;;;;6.10;72.26;102424.31;5055212;28;45474;-64
2022/01/20 05:14:40;;;;;;;;;8.00;7.50;;;;;6.05;71.63;102428.78;5053647;28;45250;-63
2022/01/20 05:17:06;;;;;;;;;1.75;1.00;;;;;6.06;72.23;102425.25;5029661;28;45730;-63
2022/01/20 05:19:32;;;;;;;;;11.50;7.00;;;;;5.97;72.02;102401.53;5037141;28;47680;-63
2022/01/20 05:21:59;;;;;;;;;10.50;9.00;;;;;6.09;72.20;102422.56;5055037;28;45397;-63
2022/01/20 05:24:25;;;;;;;;;10.25;7.50;;;;;6.06;72.07;102432.28;5058049;28;45504;-63
2022/01/20 05:26:52;;;;;;;;;8.50;7.00;;;;;5.96;70.96;102423.56;5057346;28;45485;-62
2022/01/20 05:29:19;;;;;;;;;10.50;6.50;;;;;5.95;71.65;102428.84;5058219;28;46186;-65
2022/01/20 05:31:44;;;;;;;;;13.25;10.00;;;;;5.92;71.91;102432.41;5056307;28;45429;-64
2022/01/20 05:34:10;;;;;;;;;11.00;9.00;;;;;5.91;72.52;102435.94;5058276;28;45399;-62
2022/01/20 05:36:35;;;;;;;;;14.50;10.50;;;;;5.88;71.16;102435.94;5058397;28;45565;-61
2022/01/20 05:39:01;;;;;;;;;13.00;9.00;;;;;5.83;72.15;102443.88;5058369;28;45477;-63
2022/01/20 05:41:26;;;;;;;;;9.00;6.25;;;;;5.87;72.03;102445.63;5058061;28;45441;-64
2022/01/20 05:43:51;;;;;;;;;6.25;6.25;;;;;5.95;71.95;102455.25;5057869;28;45405;-62
2022/01/20 05:46:22;;;;;;;;;11.75;8.75;;;;;5.81;71.30;102444.75;5057975;28;45492;-64
2022/01/20 05:48:48;;;;;;;;;11.75;8.00;;;;;5.75;71.20;102445.69;5057996;28;47027;-63
2022/01/20 05:51:14;;;;;;;;;11.75;9.00;;;;;5.72;71.40;102450.97;5037526;28;45584;-62
2022/01/20 05:53:39;;;;;;;;;8.50;8.25;;;;;5.73;72.30;102458.03;5058354;28;45256;-64
2022/01/20 05:56:05;;;;;;;;;12.00;8.00;;;;;5.72;72.60;102458.88;5057619;28;45663;-63
2022/01/20 05:58:33;;;;;;;;;11.75;7.25;;;;;5.77;72.28;102457.13;5058003;28;45527;-62
2022/01/20 06:00:59;;;;;;;;;8.00;7.50;;;;;5.65;71.91;102444.00;5056764;28;45419;-64
2022/01/20 06:03:36;;;;;;;;;8.00;8.00;;;;;5.76;71.99;102462.41;5057048;28;45389;-63
2022/01/20 06:06:07;;;;;;;;;11.25;11.00;;;;;5.70;71.16;102465.94;5042151;28;45298;-67
2022/01/20 06:08:35;;;;;;;;;8.25;7.25;;;;;5.74;71.81;102470.34;5057759;28;46195;-63
2022/01/20 06:11:00;;;;;;;;;11.25;7.25;;;;;5.70;71.55;102463.31;5057464;28;45421;-63
2022/01/20 06:13:27;;;;;;;;;7.00;5.00;;;;;5.68;71.39;102451.88;5057394;28;45541;-63
2022/01/20 06:15:52;;;;;;;;;4.50;4.00;;;;;5.72;71.00;102461.53;5039024;28;45489;-62
2022/01/20 06:18:19;;;;;;;;;11.00;7.50;;;;;5.76;70.77;102467.69;5056562;28;45930;-66
2022/01/20 06:20:46;;;;;;;;;8.75;7.00;;;;;5.81;71.09;102474.69;5056936;28;45943;-64
2022/01/20 06:23:12;;;;;;;;;10.00;7.00;;;;;5.85;71.06;102479.06;5040519;28;45553;-64
2022/01/20 06:25:38;;;;;;;;;12.75;7.00;;;;;5.80;70.91;102465.00;5057832;28;45721;-68
2022/01/20 06:28:04;;;;;;;;;10.50;6.00;;;;;5.87;70.95;102482.59;5056594;28;45462;-64
2022/01/20 06:30:32;;;;;;;;;5.50;4.75;;;;;5.87;69.96;102473.78;5036527;28;45544;-65
2022/01/20 06:32:58;;;;;;;;;11.00;6.25;;;;;5.90;70.24;102479.94;5056796;28;45396;-68
2022/01/20 06:35:24;;;;;;;;;7.75;7.00;;;;;5.91;70.67;102479.06;5057361;28;45504;-65
2022/01/20 06:37:49;;;;;;;;;5.50;4.75;;;;;5.93;70.21;102483.44;5041067;28;47851;-66
2022/01/20 06:40:15;;;;;;;;;15.75;8.00;;;;;5.89;70.53;102477.28;5035218;28;45422;-67
2022/01/20 06:42:41;;;;;;;;;5.00;5.00;;;;;5.95;69.50;102486.97;5030572;28;45685;-67
2022/01/20 06:45:10;;;;;;;;;9.50;9.50;;;;;5.82;69.70;102484.34;5057205;28;45477;-68
2022/01/20 06:47:35;;;;;;;;;10.50;5.25;;;;;5.79;70.63;102487.03;5052809;28;46115;-69
2022/01/20 06:50:01;;;;;;;;;13.25;12.00;;;;;5.80;70.76;102496.69;5038970;28;45515;-63
2022/01/20 06:52:28;;;;;;;;;8.25;8.25;;;;;5.83;70.27;102494.03;5057055;28;45349;-68
2022/01/20 06:54:54;;;;;;;;;14.75;11.00;;;;;5.80;70.61;102504.63;5057238;28;45534;-61
2022/01/20 06:57:20;;;;;;;;;8.25;7.50;;;;;5.72;70.08;102513.44;5056984;28;47261;-68
2022/01/20 06:59:46;;;;;;;;;9.00;6.25;;;;;5.58;68.74;102521.44;5056898;28;45335;-64
2022/01/20 07:02:12;;;;;;;;;13.00;11.25;;;;;5.44;70.65;102528.53;5039037;28;45317;-63
2022/01/20 07:04:40;;;;;;;;;11.00;8.00;;;;;5.43;69.86;102535.59;5057098;28;45309;-61
2022/01/20 07:07:09;;;;;;;;;7.75;7.00;;;;;5.40;70.50;102532.09;5038704;28;45408;-66
2022/01/20 07:09:35;;;;;;;;;9.00;9.00;;;;;5.39;70.47;102535.63;5057693;28;45454;-62
2022/01/20 07:12:02;;;;;;;;;14.00;7.00;;;;;5.39;69.92;102546.16;5056827;28;45312;-66
2022/01/20 07:14:29;;;;;;;;;7.75;5.00;;;;;5.32;71.03;102558.47;5057492;28;45519;-62
2022/01/20 07:16:55;;;;;;;;;7.00;6.75;;;;;5.23;71.15;102546.22;5055887;28;46347;-66
2022/01/20 07:19:21;;;;;;;;;8.50;6.75;;;;;5.29;71.19;102564.66;5057089;28;45430;-64
2022/01/20 07:21:46;;;;;;;;;11.00;11.00;;;;;5.23;71.26;102572.59;5038449;28;45353;-65
2022/01/20 07:24:12;;;;;;;;;11.50;7.75;;;;;5.27;71.53;102565.56;5056640;28;45336;-66
2022/01/20 07:26:41;;;;;;;;;14.00;11.50;;;;;5.28;71.01;102584.00;5057030;28;45272;-65
2022/01/20 07:29:07;;;;;;;;;8.00;7.75;;;;;5.29;71.01;102569.94;5038748;28;45463;-62
2022/01/20 07:31:33;;;;;;;;;10.50;8.25;;;;;5.44;71.38;102576.03;5038048;28;45331;-62
2022/01/20 07:33:58;;;;;;;;;5.00;5.00;;;;;5.46;71.37;102584.81;5056684;28;45315;-68
2022/01/20 07:36:24;;;;;;;;;6.25;5.25;;;;;5.48;71.19;102585.72;5056753;28;45435;-70
2022/01/20 07:38:50;;;;;;;;;12.25;11.00;;;;;5.57;70.72;102577.75;5055935;28;45516;-70
2022/01/20 07:41:16;;;;;;;;;12.25;9.25;;;;;5.61;70.93;102582.16;5056539;28;45407;-68
2022/01/20 07:43:41;;;;;;;;;9.00;7.50;;;;;5.55;70.58;102561.06;5055770;28;45574;-65
2022/01/20 07:46:07;;;;;;;;;19.00;9.00;;;;;5.55;70.65;102568.97;5023070;28;48174;-67
2022/01/20 07:48:34;;;;;;;;;8.25;8.00;;;;;5.54;70.92;102586.56;5036862;28;45533;-67
2022/01/20 07:51:00;;;;;;;;;16.75;11.00;;;;;5.50;71.17;102583.97;5033056;28;45502;-68
2022/01/20 07:53:28;;;;;;;;;12.50;9.50;;;;;5.47;71.78;102576.94;5049095;28;45237;-70
2022/01/20 07:55:54;;;;;;;;;13.75;11.25;;;;;5.56;71.04;102582.16;5053472;28;45554;-69
2022/01/20 07:58:20;;;;;;;;;15.00;7.75;;;;;5.62;71.15;102578.63;5039203;28;45441;-64
2022/01/20 08:00:45;;;;;;;;;10.00;9.00;;;;;5.57;71.70;102583.03;5055801;28;45614;-69
2022/01/20 08:03:11;;;;;;;;;5.00;5.00;;;;;5.62;71.32;102560.16;5055914;28;45415;-64
2022/01/20 08:05:37;;;;;;;;;13.25;13.25;;;;;5.70;70.77;102568.91;5037734;28;47364;-64
2022/01/20 08:08:02;;;;;;;;;15.00;12.00;;;;;5.69;71.07;102566.28;5055073;28;45394;-66
2022/01/20 08:10:28;;;;;;;;;8.75;8.75;;;;;5.74;71.07;102581.22;5056181;28;45428;-65
2022/01/20 08:12:54;;;;;;;;;13.00;9.00;;;;;5.70;70.79;102566.25;5053376;28;45494;-65
2022/01/20 08:15:20;;;;;;;;;11.00;8.00;;;;;5.84;70.45;102569.72;5053909;28;45492;-71
2022/01/20 08:17:47;;;;;;;;;13.75;8.25;;;;;5.75;70.46;102577.69;5050363;28;45533;-65
2022/01/20 08:20:13;;;;;;;;;13.50;9.25;;;;;5.86;70.55;102590.88;5056115;28;45525;-65
2022/01/20 08:22:39;;;;;;;;;8.75;8.25;;;;;5.91;70.28;102574.13;5037989;28;45565;-65
2022/01/20 08:25:09;;;;;;;;;15.00;11.25;;;;;6.00;70.07;102588.19;5055207;28;45458;-66
2022/01/20 08:27:37;;;;;;;;;11.50;8.75;;;;;6.01;69.83;102587.28;5044972;28;45450;-65
2022/01/20 08:30:10;;;;;;;;;12.25;9.50;;;;;6.01;69.98;102574.09;5055233;28;45422;-63
2022/01/20 08:32:36;;;;;;;;;23.75;14.50;;;;;6.02;70.44;102565.28;5024540;28;45613;-66
2022/01/20 08:35:05;;;;;;;;;12.75;12.75;;;;;6.14;69.64;102573.13;5053391;28;46005;-65
2022/01/20 08:37:32;;;;;;;;;15.00;11.50;;;;;6.16;69.58;102581.91;5052693;28;45399;-67
2022/01/20 08:39:58;;;;;;;;;14.50;9.25;;;;;6.11;70.52;102592.50;5055872;28;45260;-66
2022/01/20 08:42:24;;;;;;;;;13.50;13.50;;;;;6.19;70.53;102600.38;5055467;28;45501;-66
2022/01/20 08:44:49;;;;;;;;;12.00;9.50;;;;;6.15;69.70;102588.97;5055810;28;45529;-65
2022/01/20 08:47:20;;;;;;;;;10.75;10.00;;;;;6.24;69.78;102595.94;5037674;28;45267;-65
2022/01/20 08:49:47;;;;;;;;;12.00;11.50;;;;;6.03;69.10;102606.66;5047685;28;45387;-65
2022/01/20 08:52:14;;;;;;;;;16.00;14.50;;;;;6.12;70.84;102609.22;5046678;28;45458;-69
2022/01/20 08:54:41;;;;;;;;;19.00;14.75;;;;;6.25;69.75;102610.94;5038129;28;45768;-64
2022/01/20 08:57:06;;;;;;;;;10.75;8.25;;;;;6.22;69.50;102603.00;5056137;28;45609;-63
2022/01/20 08:59:32;;;;;;;;;15.00;11.50;;;;;6.29;70.04;102591.53;5056079;28;45540;-64
2022/01/20 09:01:57;;;;;;;;;12.25;10.25;;;;;6.25;69.85;102581.88;5040922;28;45615;-65
2022/01/20 09:04:23;;;;;;;;;16.00;13.25;;;;;6.13;69.62;102581.94;5059126;28;45371;-65
2022/01/20 09:06:54;;;;;;;;;11.50;11.50;;;;;6.30;69.93;102598.56;5040799;28;45525;-68
2022/01/20 09:09:21;;;;;;;;;10.75;10.50;;;;;6.38;69.26;102599.41;5066660;28;45586;-66
2022/01/20 09:15:27;;;;;;;;;16.75;16.50;;;;;6.44;69.21;102596.69;5057405;28;46029;-62
2022/01/20 09:17:31;;;;;;;;;15.75;9.75;;;;;6.61;68.98;102608.91;5058503;28;45418;-67
2022/01/20 09:19:58;;;;;;;;;16.00;12.75;;;;;6.68;69.14;102606.22;5057611;28;45261;-67
2022/01/20 09:22:26;;;;;;;;;16.00;11.75;;;;;6.68;68.84;102611.50;5059116;28;45515;-64
2022/01/20 09:24:51;;;;;;;;;10.25;8.00;;;;;6.69;68.63;102623.84;5058945;28;46105;-65
2022/01/20 09:27:18;;;;;;;;;23.50;14.50;;;;;6.79;68.80;102622.00;5039768;28;45773;-63
2022/01/20 09:29:45;;;;;;;;;18.00;12.75;;;;;6.89;69.22;102625.44;5057550;28;45498;-67
2022/01/20 09:32:12;;;;;;;;;12.75;11.75;;;;;6.90;67.79;102637.75;5057706;28;46798;-65
2022/01/20 09:34:39;;;;;;;;;12.25;9.50;;;;;6.75;68.95;102642.28;5056361;28;45691;-67
2022/01/20 09:37:05;;;;;;;;;14.00;12.75;;;;;6.74;68.44;102642.31;5057470;28;45454;-66
2022/01/20 09:39:31;;;;;;;;;17.00;11.75;;;;;6.76;68.36;102646.69;5058695;28;45280;-65
2022/01/20 09:41:58;;;;;;;;;17.50;14.75;;;;;6.81;68.87;102644.03;5040882;28;45521;-66
2022/01/20 09:44:24;;;;;;;;;20.75;12.00;;;;;6.88;68.65;102640.44;5057832;28;46169;-64
2022/01/20 09:46:50;;;;;;;;;12.00;12.00;;;;;6.87;69.01;102640.44;5040297;28;45370;-66
2022/01/20 09:49:16;;;;;;;;;20.50;16.25;;;;;6.95;68.34;102644.78;5058472;28;45494;-66
2022/01/20 09:51:42;;;;;;;;;18.00;12.75;;;;;6.84;68.61;102635.19;5039915;28;45738;-64
2022/01/20 09:54:08;;;;;;;;;23.00;14.25;;;;;6.82;69.00;102619.34;5039798;28;46215;-64
2022/01/20 09:56:36;;;;;;;;;21.25;15.00;;;;;6.93;68.75;102641.28;5057393;28;45787;-66
2022/01/20 09:59:02;;;;;;;;;16.25;14.75;;;;;6.79;68.93;102617.59;5040357;28;45511;-66
2022/01/20 10:01:56;;;;;;;;;13.25;13.25;;;;;7.00;69.01;102635.03;5038959;28;45585;-69
2022/01/20 10:04:30;;;;;;;;;16.25;13.25;;;;;7.09;68.17;102629.66;5037635;28;45721;-64
2022/01/20 10:07:04;;;;;;;;;13.50;12.75;;;;;7.16;68.32;102637.53;5052932;28;45490;-66
2022/01/20 10:09:42;;;;;;;;;12.00;9.50;;;;;7.31;68.17;102642.72;5042089;28;45271;-64
2022/01/20 10:12:10;;;;;;;;;16.25;13.75;;;;;7.28;67.95;102655.94;5057294;28;45494;-67
2022/01/20 10:14:41;;;;;;;;;16.50;12.00;;;;;7.15;68.02;102654.31;5057658;28;47132;-65
2022/01/20 10:17:21;;;;;;;;;13.00;12.00;;;;;7.08;67.87;102653.50;5056969;28;45409;-65
2022/01/20 10:19:51;;;;;;;;;6.75;4.00;;;;;7.06;68.40;102666.75;5057580;28;45410;-68
2022/01/20 10:22:23;;;;;;;;;5.00;1.50;;;;;7.03;68.71;102664.13;5040001;28;45609;-65
2022/01/20 10:25:04;;;;;;;;;17.00;11.25;;;;;7.27;68.73;102675.38;5056480;28;46123;-69
2022/01/20 10:27:45;;;;;;;;;25.75;25.75;;;;;7.38;68.20;102668.22;5038666;28;45480;-68
2022/01/20 10:30:11;;;;;;;;;16.25;15.25;;;;;7.55;67.94;102671.59;5039265;28;45256;-64
2022/01/20 10:32:48;;;;;;;;;21.50;18.50;;;;;7.66;67.44;102674.97;5037644;28;45702;-68
2022/01/20 10:35:16;;;;;;;;;16.50;13.25;;;;;7.65;67.11;102677.66;5052022;28;45522;-66
2022/01/20 10:37:58;;;;;;;;;21.00;20.00;;;;;7.66;67.04;102672.31;5056204;28;45495;-67
2022/01/20 10:40:24;;;;;;;;;19.75;16.00;;;;;7.76;66.96;102677.53;5056139;28;45428;-62
2022/01/20 10:42:49;;;;;;;;;15.25;13.25;;;;;7.78;66.52;102688.97;5055999;28;45473;-66
2022/01/20 10:45:26;;;;;;;;;18.00;18.00;;;;;7.92;66.93;102692.34;5056950;28;45980;-63
2022/01/20 10:47:54;;;;;;;;;22.50;19.75;;;;;8.08;67.22;102693.94;5053432;28;45439;-62
2022/01/20 10:50:27;;;;;;;;;20.75;16.25;;;;;8.12;66.14;102695.66;5057179;28;45543;-64
2022/01/20 10:52:53;;;;;;;;;22.25;19.00;;;;;8.05;65.89;102663.94;5056302;28;46366;-65
2022/01/20 10:55:24;;;;;;;;;15.00;12.25;;;;;8.26;66.36;102687.53;5034593;28;46367;-68
2022/01/20 10:57:54;;;;;;;;;19.25;18.25;;;;;8.22;65.96;102670.78;5051599;28;45522;-67
2022/01/20 11:00:22;;;;;;;;;23.50;15.50;;;;;8.23;66.43;102679.63;5047037;28;45316;-64
2022/01/20 11:02:57;;;;;;;;;30.00;18.25;;;;;8.31;65.86;102668.91;5057820;28;45342;-68
2022/01/20 11:05:23;;;;;;;;;23.50;14.75;;;;;8.43;65.89;102677.59;5056748;28;45540;-67
2022/01/20 11:07:49;;;;;;;;;16.25;15.25;;;;;8.45;65.69;102677.56;5020223;28;45539;-70
2022/01/20 11:10:16;;;;;;;;;19.50;18.00;;;;;8.45;65.74;102656.34;5056548;28;45395;-67
2022/01/20 11:12:43;;;;;;;;;21.00;21.00;;;;;8.56;65.96;102675.66;5056982;28;45383;-69
2022/01/20 11:15:12;;;;;;;;;20.00;15.00;;;;;8.63;64.44;102679.97;5043092;28;45510;-64
2022/01/20 11:17:40;;;;;;;;;22.50;15.75;;;;;8.68;63.98;102670.16;5035710;28;45456;-65
2022/01/20 11:20:09;;;;;;;;;14.25;12.00;;;;;8.68;63.80;102674.59;5063083;28;45269;-63
2022/01/20 11:22:35;;;;;;;;;16.75;11.00;;;;;8.64;64.03;102678.19;5061782;28;45485;-64
2022/01/20 11:25:06;;;;;;;;;8.50;8.50;;;;;8.75;64.47;102673.63;5038490;28;46559;-69
2022/01/20 11:27:42;;;;;;;;;13.00;9.25;;;;;8.79;62.51;102662.91;5056785;28;45383;-66
2022/01/20 11:30:18;;;;;;;;;17.25;12.25;;;;;8.85;64.25;102672.53;5056297;28;45213;-67
2022/01/20 11:32:56;;;;;;;;;12.75;9.75;;;;;8.93;63.26;102654.75;5054332;28;45340;-70
2022/01/20 11:35:22;;;;;;;;;11.50;10.00;;;;;9.00;62.49;102651.09;5044695;28;46027;-68
2022/01/20 11:37:58;;;;;;;;;11.75;10.00;;;;;9.09;62.75;102658.88;5056367;28;45477;-67
2022/01/20 11:40:24;;;;;;;;;10.25;9.00;;;;;9.14;62.61;102659.69;5037986;28;45465;-65
2022/01/20 11:43:10;;;;;;;;;9.25;9.25;;;;;9.13;61.73;102654.41;5055069;28;45430;-61
2022/01/20 11:45:40;;;;;;;;;8.25;6.00;;;;;8.87;60.24;102662.81;5046535;28;46069;-64
2022/01/20 11:48:20;;;;;;;;;16.25;12.00;;;;;8.73;60.58;102664.81;5020905;28;46728;-68
2022/01/20 11:50:48;;;;;;;;;14.25;13.75;;;;;8.81;61.43;102671.72;5055376;28;45496;-67
2022/01/20 11:53:17;;;;;;;;;10.00;9.00;;;;;8.88;60.62;102676.97;5056138;28;45466;-67
2022/01/20 11:55:52;;;;;;;;;15.50;5.75;;;;;8.82;61.29;102670.81;5056152;28;46008;-66
2022/01/20 11:58:21;;;;;;;;;9.25;6.75;;;;;8.74;61.88;102669.22;5056327;28;45484;-65
2022/01/20 12:01:00;;;;;;;;;8.00;8.00;;;;;8.82;61.95;102657.56;5055571;28;45477;-69
2022/01/20 12:03:26;;;;;;;;;7.50;7.00;;;;;8.85;60.80;102673.47;5056049;28;45629;-68
2022/01/20 12:06:13;;;;;;;;;6.00;6.00;;;;;8.81;60.00;102670.84;5055169;28;46116;-67
2022/01/20 12:09:01;;;;;;;;;6.25;3.50;;;;;8.72;59.96;102655.06;5052658;28;45382;-66
2022/01/20 12:11:35;;;;;;;;;7.50;5.00;;;;;8.55;60.63;102645.59;5031800;28;45398;-66
2022/01/20 12:14:01;;;;;;;;;8.00;5.75;;;;;8.65;59.59;102669.34;5038402;28;45660;-65
2022/01/20 12:16:27;;;;;;;;;6.75;5.25;;;;;8.64;59.60;102679.06;5037903;28;46951;-67
2022/01/20 12:18:56;;;;;;;;;5.00;5.00;;;;;8.70;59.49;102678.97;5038307;28;45256;-68
2022/01/20 12:21:24;;;;;;;;;8.00;4.50;;;;;8.74;59.54;102675.41;5037404;28;46932;-65
2022/01/20 12:23:52;;;;;;;;;3.00;3.00;;;;;8.72;59.51;102663.91;5055449;28;45457;-69
2022/01/20 12:26:18;;;;;;;;;6.00;6.00;;;;;8.86;58.76;102669.91;5035211;28;45783;-66
2022/01/20 12:28:44;;;;;;;;;6.00;5.00;;;;;8.90;58.57;102669.84;5035883;28;45434;-63